Terminal Aerodrome Forecast
Issued by NWS

Home | Current Version | Previous Version | Text Only | Print | Product List | Glossary On
Versions: 1 2 3 4 5 6 7 8 9 10 11 12 13 14 15 16 17 18 19
369
FTUS46 KSEW 241120
TAFBFI
TAF
KBFI 241120Z 2412/2512 16004KT P6SM SCT025 SCT070
     FM241400 15005KT P6SM VCSH SCT025 BKN035 OVC050
     FM241800 18006KT P6SM VCSH SCT030 BKN050
     FM242100 21006KT P6SM SCT045 BKN060
     FM250200 VRB03KT P6SM SCT060 SCT200=

USA.gov is the U.S. government's official web portal to all federal, state and local government web resources and services.